sensor_id;sensor_type;location;lat;lon;timestamp;temperature;humidity
46037;DHT22;31769;49.304;8.428;2022-07-29T00:02:30;22.70;75.00
46037;DHT22;31769;49.304;8.428;2022-07-29T00:05:32;22.70;75.30
46037;DHT22;31769;49.304;8.428;2022-07-29T00:08:33;22.70;75.30
46037;DHT22;31769;49.304;8.428;2022-07-29T00:11:34;22.70;75.60
46037;DHT22;31769;49.304;8.428;2022-07-29T00:14:34;22.60;75.70
46037;DHT22;31769;49.304;8.428;2022-07-29T00:17:35;22.60;76.20
46037;DHT22;31769;49.304;8.428;2022-07-29T00:20:36;22.60;76.70
46037;DHT22;31769;49.304;8.428;2022-07-29T00:23:36;22.50;77.10
46037;DHT22;31769;49.304;8.428;2022-07-29T00:26:37;22.40;77.70
46037;DHT22;31769;49.304;8.428;2022-07-29T00:29:38;22.40;78.30
46037;DHT22;31769;49.304;8.428;2022-07-29T00:32:38;22.40;79.00
46037;DHT22;31769;49.304;8.428;2022-07-29T00:35:39;22.40;79.50
46037;DHT22;31769;49.304;8.428;2022-07-29T00:38:51;22.40;79.60
46037;DHT22;31769;49.304;8.428;2022-07-29T00:41:51;22.50;79.90
46037;DHT22;31769;49.304;8.428;2022-07-29T00:44:52;22.50;80.20
46037;DHT22;31769;49.304;8.428;2022-07-29T00:47:53;22.60;81.00
46037;DHT22;31769;49.304;8.428;2022-07-29T00:50:55;22.60;81.30
46037;DHT22;31769;49.304;8.428;2022-07-29T00:53:56;22.60;82.40
46037;DHT22;31769;49.304;8.428;2022-07-29T00:56:58;22.60;82.90
46037;DHT22;31769;49.304;8.428;2022-07-29T00:59:59;22.60;83.40
46037;DHT22;31769;49.304;8.428;2022-07-29T01:03:00;22.60;83.80
46037;DHT22;31769;49.304;8.428;2022-07-29T01:06:00;22.50;83.10
46037;DHT22;31769;49.304;8.428;2022-07-29T01:09:01;22.40;82.20
46037;DHT22;31769;49.304;8.428;2022-07-29T01:12:03;22.30;82.00
46037;DHT22;31769;49.304;8.428;2022-07-29T01:15:06;22.20;82.20
46037;DHT22;31769;49.304;8.428;2022-07-29T01:18:15;22.10;82.60
46037;DHT22;31769;49.304;8.428;2022-07-29T01:21:40;21.90;83.20
46037;DHT22;31769;49.304;8.428;2022-07-29T01:29:00;21.80;84.30
46037;DHT22;31769;49.304;8.428;2022-07-29T01:32:03;21.70;84.80
46037;DHT22;31769;49.304;8.428;2022-07-29T01:35:40;21.70;85.50
46037;DHT22;31769;49.304;8.428;2022-07-29T01:38:43;21.60;85.90
46037;DHT22;31769;49.304;8.428;2022-07-29T01:42:15;21.70;86.10
46037;DHT22;31769;49.304;8.428;2022-07-29T01:45:21;21.70;86.60
46037;DHT22;31769;49.304;8.428;2022-07-29T01:48:31;21.70;87.00
46037;DHT22;31769;49.304;8.428;2022-07-29T01:51:43;21.70;87.40
46037;DHT22;31769;49.304;8.428;2022-07-29T01:54:53;21.70;87.60
46037;DHT22;31769;49.304;8.428;2022-07-29T01:57:56;21.60;88.10
46037;DHT22;31769;49.304;8.428;2022-07-29T02:00:58;21.60;88.60
46037;DHT22;31769;49.304;8.428;2022-07-29T02:04:03;21.60;89.20
46037;DHT22;31769;49.304;8.428;2022-07-29T02:07:07;21.60;90.00
46037;DHT22;31769;49.304;8.428;2022-07-29T02:10:11;21.50;90.50
46037;DHT22;31769;49.304;8.428;2022-07-29T02:13:13;21.40;90.70
46037;DHT22;31769;49.304;8.428;2022-07-29T02:16:15;21.50;90.90
46037;DHT22;31769;49.304;8.428;2022-07-29T02:19:18;21.40;91.00
46037;DHT22;31769;49.304;8.428;2022-07-29T02:22:20;21.40;91.20
46037;DHT22;31769;49.304;8.428;2022-07-29T02:25:22;21.30;91.80
46037;DHT22;31769;49.304;8.428;2022-07-29T02:28:26;21.30;92.30
46037;DHT22;31769;49.304;8.428;2022-07-29T02:31:34;21.30;92.70
46037;DHT22;31769;49.304;8.428;2022-07-29T02:34:37;21.20;93.10
46037;DHT22;31769;49.304;8.428;2022-07-29T02:37:39;21.00;93.60
46037;DHT22;31769;49.304;8.428;2022-07-29T02:40:42;20.90;94.10
46037;DHT22;31769;49.304;8.428;2022-07-29T02:43:44;20.80;94.40
46037;DHT22;31769;49.304;8.428;2022-07-29T02:50:21;20.40;96.00
46037;DHT22;31769;49.304;8.428;2022-07-29T02:53:26;20.30;96.60
46037;DHT22;31769;49.304;8.428;2022-07-29T02:56:31;20.30;97.20
46037;DHT22;31769;49.304;8.428;2022-07-29T02:59:36;20.30;97.60
46037;DHT22;31769;49.304;8.428;2022-07-29T03:02:43;20.20;98.00
46037;DHT22;31769;49.304;8.428;2022-07-29T03:05:44;20.10;98.60
46037;DHT22;31769;49.304;8.428;2022-07-29T03:08:46;20.10;99.00
46037;DHT22;31769;49.304;8.428;2022-07-29T03:11:47;20.10;99.50
46037;DHT22;31769;49.304;8.428;2022-07-29T03:14:48;20.10;99.80
46037;DHT22;31769;49.304;8.428;2022-07-29T03:17:49;20.10;99.90
46037;DHT22;31769;49.304;8.428;2022-07-29T03:20:50;20.20;99.90
46037;DHT22;31769;49.304;8.428;2022-07-29T03:23:51;20.20;99.90
46037;DHT22;31769;49.304;8.428;2022-07-29T03:26:52;20.20;99.90
46037;DHT22;31769;49.304;8.428;2022-07-29T03:29:53;20.20;99.90
46037;DHT22;31769;49.304;8.428;2022-07-29T03:32:53;20.20;99.90
46037;DHT22;31769;49.304;8.428;2022-07-29T03:35:54;20.30;99.90
46037;DHT22;31769;49.304;8.428;2022-07-29T03:38:55;20.30;99.90
46037;DHT22;31769;49.304;8.428;2022-07-29T03:41:58;20.30;99.90
46037;DHT22;31769;49.304;8.428;2022-07-29T03:45:06;20.20;99.90
46037;DHT22;31769;49.304;8.428;2022-07-29T03:48:11;20.20;99.90
46037;DHT22;31769;49.304;8.428;2022-07-29T03:51:13;20.10;99.90
46037;DHT22;31769;49.304;8.428;2022-07-29T03:54:14;19.80;99.90
46037;DHT22;31769;49.304;8.428;2022-07-29T03:57:16;19.80;99.90
46037;DHT22;31769;49.304;8.428;2022-07-29T04:00:18;19.80;99.90
46037;DHT22;31769;49.304;8.428;2022-07-29T04:03:20;19.80;99.90
46037;DHT22;31769;49.304;8.428;2022-07-29T04:06:21;20.00;99.90
46037;DHT22;31769;49.304;8.428;2022-07-29T04:09:22;19.90;99.90
46037;DHT22;31769;49.304;8.428;2022-07-29T04:12:22;19.90;99.90
46037;DHT22;31769;49.304;8.428;2022-07-29T04:15:23;19.90;99.90
46037;DHT22;31769;49.304;8.428;2022-07-29T04:18:24;19.90;99.90
46037;DHT22;31769;49.304;8.428;2022-07-29T04:21:25;19.90;99.90
46037;DHT22;31769;49.304;8.428;2022-07-29T04:24:26;19.80;99.90
46037;DHT22;31769;49.304;8.428;2022-07-29T04:27:27;19.70;99.90
46037;DHT22;31769;49.304;8.428;2022-07-29T04:30:28;19.80;99.90
46037;DHT22;31769;49.304;8.428;2022-07-29T04:33:29;19.80;99.90
46037;DHT22;31769;49.304;8.428;2022-07-29T04:36:30;19.90;99.90
46037;DHT22;31769;49.304;8.428;2022-07-29T04:39:31;19.90;99.90
46037;DHT22;31769;49.304;8.428;2022-07-29T04:42:31;19.90;99.90
46037;DHT22;31769;49.304;8.428;2022-07-29T04:45:32;20.00;99.90
46037;DHT22;31769;49.304;8.428;2022-07-29T04:48:33;20.00;99.90
46037;DHT22;31769;49.304;8.428;2022-07-29T04:51:34;20.00;99.90
46037;DHT22;31769;49.304;8.428;2022-07-29T04:54:34;20.10;99.90
46037;DHT22;31769;49.304;8.428;2022-07-29T04:57:35;20.30;99.90
46037;DHT22;31769;49.304;8.428;2022-07-29T05:00:36;20.40;99.90
46037;DHT22;31769;49.304;8.428;2022-07-29T05:03:37;20.50;99.90
46037;DHT22;31769;49.304;8.428;2022-07-29T05:06:37;20.60;99.90
46037;DHT22;31769;49.304;8.428;2022-07-29T05:09:38;20.60;99.90
46037;DHT22;31769;49.304;8.428;2022-07-29T05:12:39;20.50;99.90
46037;DHT22;31769;49.304;8.428;2022-07-29T05:15:39;20.50;99.90
46037;DHT22;31769;49.304;8.428;2022-07-29T05:18:41;20.30;99.90
46037;DHT22;31769;49.304;8.428;2022-07-29T05:21:41;20.30;99.90
46037;DHT22;31769;49.304;8.428;2022-07-29T05:24:42;20.30;99.90
46037;DHT22;31769;49.304;8.428;2022-07-29T05:27:43;20.40;99.90
46037;DHT22;31769;49.304;8.428;2022-07-29T05:30:43;20.50;99.90
46037;DHT22;31769;49.304;8.428;2022-07-29T05:33:44;20.60;99.90
46037;DHT22;31769;49.304;8.428;2022-07-29T05:36:46;20.80;99.90
46037;DHT22;31769;49.304;8.428;2022-07-29T05:39:47;20.90;99.90
46037;DHT22;31769;49.304;8.428;2022-07-29T05:42:48;21.10;99.90
46037;DHT22;31769;49.304;8.428;2022-07-29T05:45:48;21.30;99.90
46037;DHT22;31769;49.304;8.428;2022-07-29T05:48:49;21.40;99.90
46037;DHT22;31769;49.304;8.428;2022-07-29T05:51:50;21.50;99.90
46037;DHT22;31769;49.304;8.428;2022-07-29T05:54:51;21.40;99.90
46037;DHT22;31769;49.304;8.428;2022-07-29T05:57:52;21.30;99.90
46037;DHT22;31769;49.304;8.428;2022-07-29T06:00:53;21.30;99.90
46037;DHT22;31769;49.304;8.428;2022-07-29T06:03:54;21.50;99.90
46037;DHT22;31769;49.304;8.428;2022-07-29T06:06:55;21.50;99.90
46037;DHT22;31769;49.304;8.428;2022-07-29T06:09:56;21.70;99.90
46037;DHT22;31769;49.304;8.428;2022-07-29T06:12:56;21.90;99.90
46037;DHT22;31769;49.304;8.428;2022-07-29T06:15:57;22.10;99.90
46037;DHT22;31769;49.304;8.428;2022-07-29T06:18:58;22.40;99.90
46037;DHT22;31769;49.304;8.428;2022-07-29T06:21:59;22.60;99.90
46037;DHT22;31769;49.304;8.428;2022-07-29T06:25:01;22.90;99.90
46037;DHT22;31769;49.304;8.428;2022-07-29T06:28:02;23.20;99.90
46037;DHT22;31769;49.304;8.428;2022-07-29T06:31:03;23.30;99.90
46037;DHT22;31769;49.304;8.428;2022-07-29T06:34:05;23.50;99.90
46037;DHT22;31769;49.304;8.428;2022-07-29T06:37:09;23.40;99.90
46037;DHT22;31769;49.304;8.428;2022-07-29T06:40:10;23.00;99.90
46037;DHT22;31769;49.304;8.428;2022-07-29T06:46:34;23.00;99.90
46037;DHT22;31769;49.304;8.428;2022-07-29T06:49:35;23.10;99.90
46037;DHT22;31769;49.304;8.428;2022-07-29T06:52:36;22.90;99.90
46037;DHT22;31769;49.304;8.428;2022-07-29T06:55:37;22.70;99.90
46037;DHT22;31769;49.304;8.428;2022-07-29T06:58:38;22.70;99.90
46037;DHT22;31769;49.304;8.428;2022-07-29T07:01:41;22.70;99.90
46037;DHT22;31769;49.304;8.428;2022-07-29T07:04:42;22.80;99.90
46037;DHT22;31769;49.304;8.428;2022-07-29T07:07:42;22.70;99.90
46037;DHT22;31769;49.304;8.428;2022-07-29T07:10:43;22.70;99.90
46037;DHT22;31769;49.304;8.428;2022-07-29T07:13:44;22.70;99.90
46037;DHT22;31769;49.304;8.428;2022-07-29T07:16:45;23.00;99.90
46037;DHT22;31769;49.304;8.428;2022-07-29T07:19:45;23.20;99.90
46037;DHT22;31769;49.304;8.428;2022-07-29T07:22:46;23.40;99.90
46037;DHT22;31769;49.304;8.428;2022-07-29T07:25:47;23.70;99.90
46037;DHT22;31769;49.304;8.428;2022-07-29T07:28:48;23.90;99.90
46037;DHT22;31769;49.304;8.428;2022-07-29T07:31:48;24.30;99.90
46037;DHT22;31769;49.304;8.428;2022-07-29T07:34:49;24.70;99.90
46037;DHT22;31769;49.304;8.428;2022-07-29T07:37:50;24.80;99.90
46037;DHT22;31769;49.304;8.428;2022-07-29T07:40:50;24.70;99.90
46037;DHT22;31769;49.304;8.428;2022-07-29T07:43:51;24.80;99.90
46037;DHT22;31769;49.304;8.428;2022-07-29T07:46:52;24.80;99.90
46037;DHT22;31769;49.304;8.428;2022-07-29T07:49:53;24.70;99.90
46037;DHT22;31769;49.304;8.428;2022-07-29T07:52:55;24.80;99.90
46037;DHT22;31769;49.304;8.428;2022-07-29T07:55:58;25.00;99.90
46037;DHT22;31769;49.304;8.428;2022-07-29T07:58:59;25.10;99.90
46037;DHT22;31769;49.304;8.428;2022-07-29T08:02:00;25.10;99.90
46037;DHT22;31769;49.304;8.428;2022-07-29T08:05:01;25.30;99.90
46037;DHT22;31769;49.304;8.428;2022-07-29T08:08:02;25.70;99.90
46037;DHT22;31769;49.304;8.428;2022-07-29T08:11:03;25.70;99.90
46037;DHT22;31769;49.304;8.428;2022-07-29T08:14:04;25.80;99.70
46037;DHT22;31769;49.304;8.428;2022-07-29T08:17:04;25.50;99.90
46037;DHT22;31769;49.304;8.428;2022-07-29T08:20:05;25.30;99.90
46037;DHT22;31769;49.304;8.428;2022-07-29T08:23:07;25.40;99.90
46037;DHT22;31769;49.304;8.428;2022-07-29T08:26:13;25.50;99.90
46037;DHT22;31769;49.304;8.428;2022-07-29T08:29:15;25.50;99.90
46037;DHT22;31769;49.304;8.428;2022-07-29T08:32:16;25.70;99.90
46037;DHT22;31769;49.304;8.428;2022-07-29T08:35:17;25.80;99.70
46037;DHT22;31769;49.304;8.428;2022-07-29T08:38:17;25.80;99.30
46037;DHT22;31769;49.304;8.428;2022-07-29T08:41:19;26.00;98.90
46037;DHT22;31769;49.304;8.428;2022-07-29T08:44:20;26.30;98.10
46037;DHT22;31769;49.304;8.428;2022-07-29T08:47:22;26.40;97.50
46037;DHT22;31769;49.304;8.428;2022-07-29T08:50:23;26.40;97.10
46037;DHT22;31769;49.304;8.428;2022-07-29T08:53:26;26.20;97.10
46037;DHT22;31769;49.304;8.428;2022-07-29T08:56:27;26.00;97.40
46037;DHT22;31769;49.304;8.428;2022-07-29T08:59:30;25.80;97.60
46037;DHT22;31769;49.304;8.428;2022-07-29T09:02:38;25.60;98.20
46037;DHT22;31769;49.304;8.428;2022-07-29T09:05:42;25.70;98.10
46037;DHT22;31769;49.304;8.428;2022-07-29T09:08:44;26.10;97.90
46037;DHT22;31769;49.304;8.428;2022-07-29T09:11:45;26.30;97.30
46037;DHT22;31769;49.304;8.428;2022-07-29T09:14:46;26.30;97.30
46037;DHT22;31769;49.304;8.428;2022-07-29T09:17:49;26.50;96.50
46037;DHT22;31769;49.304;8.428;2022-07-29T09:20:52;26.90;95.60
46037;DHT22;31769;49.304;8.428;2022-07-29T09:24:14;26.90;95.30
46037;DHT22;31769;49.304;8.428;2022-07-29T09:27:21;26.60;95.50
46037;DHT22;31769;49.304;8.428;2022-07-29T09:30:22;26.50;95.50
46037;DHT22;31769;49.304;8.428;2022-07-29T09:33:32;26.60;94.90
46037;DHT22;31769;49.304;8.428;2022-07-29T09:36:42;27.00;94.50
46037;DHT22;31769;49.304;8.428;2022-07-29T09:39:44;26.80;93.90
46037;DHT22;31769;49.304;8.428;2022-07-29T09:42:46;26.60;93.20
46037;DHT22;31769;49.304;8.428;2022-07-29T09:45:47;26.50;92.90
46037;DHT22;31769;49.304;8.428;2022-07-29T09:49:08;26.40;93.20
46037;DHT22;31769;49.304;8.428;2022-07-29T09:52:09;26.90;92.60
46037;DHT22;31769;49.304;8.428;2022-07-29T09:55:11;27.50;91.80
46037;DHT22;31769;49.304;8.428;2022-07-29T10:01:27;28.20;90.50
46037;DHT22;31769;49.304;8.428;2022-07-29T10:04:39;28.60;89.10
46037;DHT22;31769;49.304;8.428;2022-07-29T10:10:50;28.00;88.10
46037;DHT22;31769;49.304;8.428;2022-07-29T10:13:51;27.80;88.70
46037;DHT22;31769;49.304;8.428;2022-07-29T10:16:52;27.80;88.90
46037;DHT22;31769;49.304;8.428;2022-07-29T10:19:54;27.80;89.10
46037;DHT22;31769;49.304;8.428;2022-07-29T10:22:56;27.80;88.90
46037;DHT22;31769;49.304;8.428;2022-07-29T10:25:58;27.90;88.30
46037;DHT22;31769;49.304;8.428;2022-07-29T10:29:00;28.20;86.90
46037;DHT22;31769;49.304;8.428;2022-07-29T10:32:15;28.20;86.10
46037;DHT22;31769;49.304;8.428;2022-07-29T10:42:20;28.20;85.80
46037;DHT22;31769;49.304;8.428;2022-07-29T10:45:22;27.90;86.00
46037;DHT22;31769;49.304;8.428;2022-07-29T10:48:23;27.90;87.50
46037;DHT22;31769;49.304;8.428;2022-07-29T10:51:24;28.10;86.10
46037;DHT22;31769;49.304;8.428;2022-07-29T10:54:40;28.20;86.30
46037;DHT22;31769;49.304;8.428;2022-07-29T10:58:15;28.70;85.10
46037;DHT22;31769;49.304;8.428;2022-07-29T11:01:29;29.00;82.80
46037;DHT22;31769;49.304;8.428;2022-07-29T11:20:59;29.40;78.00
46037;DHT22;31769;49.304;8.428;2022-07-29T11:24:32;29.30;77.60
46037;DHT22;31769;49.304;8.428;2022-07-29T11:27:34;29.60;76.90
46037;DHT22;31769;49.304;8.428;2022-07-29T11:30:51;29.90;76.50
46037;DHT22;31769;49.304;8.428;2022-07-29T11:33:52;30.70;74.70
46037;DHT22;31769;49.304;8.428;2022-07-29T11:40:14;31.30;71.50
46037;DHT22;31769;49.304;8.428;2022-07-29T11:44:09;31.00;71.50
46037;DHT22;31769;49.304;8.428;2022-07-29T11:47:02;31.10;71.20
46037;DHT22;31769;49.304;8.428;2022-07-29T11:50:07;31.30;70.50
46037;DHT22;31769;49.304;8.428;2022-07-29T11:53:11;31.70;69.90
46037;DHT22;31769;49.304;8.428;2022-07-29T11:56:13;31.80;67.60
46037;DHT22;31769;49.304;8.428;2022-07-29T11:59:15;31.60;66.60
46037;DHT22;31769;49.304;8.428;2022-07-29T12:02:16;31.60;66.40
46037;DHT22;31769;49.304;8.428;2022-07-29T12:05:17;32.10;66.60
46037;DHT22;31769;49.304;8.428;2022-07-29T12:08:20;32.90;63.80
46037;DHT22;31769;49.304;8.428;2022-07-29T12:11:22;32.60;61.60
46037;DHT22;31769;49.304;8.428;2022-07-29T12:14:29;32.80;62.00
46037;DHT22;31769;49.304;8.428;2022-07-29T12:17:34;32.90;61.20
46037;DHT22;31769;49.304;8.428;2022-07-29T12:20:35;32.80;61.50
46037;DHT22;31769;49.304;8.428;2022-07-29T12:23:36;33.50;61.50
46037;DHT22;31769;49.304;8.428;2022-07-29T12:26:49;34.10;59.30
46037;DHT22;31769;49.304;8.428;2022-07-29T12:30:01;33.70;60.10
46037;DHT22;31769;49.304;8.428;2022-07-29T12:33:17;33.40;60.80
46037;DHT22;31769;49.304;8.428;2022-07-29T12:36:18;33.10;61.70
46037;DHT22;31769;49.304;8.428;2022-07-29T12:39:19;32.60;62.10
46037;DHT22;31769;49.304;8.428;2022-07-29T12:42:20;31.90;62.70
46037;DHT22;31769;49.304;8.428;2022-07-29T12:45:28;31.00;64.60
46037;DHT22;31769;49.304;8.428;2022-07-29T12:48:34;30.00;66.70
46037;DHT22;31769;49.304;8.428;2022-07-29T12:51:37;29.80;67.20
46037;DHT22;31769;49.304;8.428;2022-07-29T12:54:46;29.80;67.40
46037;DHT22;31769;49.304;8.428;2022-07-29T12:57:48;30.00;67.80
46037;DHT22;31769;49.304;8.428;2022-07-29T13:01:02;30.30;66.30
46037;DHT22;31769;49.304;8.428;2022-07-29T13:04:03;30.70;65.80
46037;DHT22;31769;49.304;8.428;2022-07-29T13:07:06;31.00;64.80
46037;DHT22;31769;49.304;8.428;2022-07-29T13:10:16;31.00;64.30
46037;DHT22;31769;49.304;8.428;2022-07-29T13:13:17;31.00;63.60
46037;DHT22;31769;49.304;8.428;2022-07-29T13:16:18;32.90;61.00
46037;DHT22;31769;49.304;8.428;2022-07-29T13:19:19;35.60;56.50
46037;DHT22;31769;49.304;8.428;2022-07-29T13:22:22;37.50;53.60
46037;DHT22;31769;49.304;8.428;2022-07-29T13:25:33;36.00;49.80
46037;DHT22;31769;49.304;8.428;2022-07-29T13:28:35;34.70;52.10
46037;DHT22;31769;49.304;8.428;2022-07-29T13:31:35;33.60;54.10
46037;DHT22;31769;49.304;8.428;2022-07-29T13:34:36;32.80;55.50
46037;DHT22;31769;49.304;8.428;2022-07-29T13:37:37;32.90;55.60
46037;DHT22;31769;49.304;8.428;2022-07-29T13:40:41;33.50;55.30
46037;DHT22;31769;49.304;8.428;2022-07-29T13:43:42;33.40;55.20
46037;DHT22;31769;49.304;8.428;2022-07-29T13:46:42;32.80;55.60
46037;DHT22;31769;49.304;8.428;2022-07-29T13:49:43;32.20;56.90
46037;DHT22;31769;49.304;8.428;2022-07-29T13:52:43;31.60;58.30
46037;DHT22;31769;49.304;8.428;2022-07-29T13:55:44;31.20;58.90
46037;DHT22;31769;49.304;8.428;2022-07-29T13:58:45;30.80;58.80
46037;DHT22;31769;49.304;8.428;2022-07-29T14:01:46;30.80;59.50
46037;DHT22;31769;49.304;8.428;2022-07-29T14:04:46;31.00;59.50
46037;DHT22;31769;49.304;8.428;2022-07-29T14:07:47;31.10;60.70
46037;DHT22;31769;49.304;8.428;2022-07-29T14:10:48;32.20;64.00
46037;DHT22;31769;49.304;8.428;2022-07-29T14:13:48;32.80;63.10
46037;DHT22;31769;49.304;8.428;2022-07-29T14:16:49;32.80;63.70
46037;DHT22;31769;49.304;8.428;2022-07-29T14:19:50;32.80;63.40
46037;DHT22;31769;49.304;8.428;2022-07-29T14:22:50;32.10;63.50
46037;DHT22;31769;49.304;8.428;2022-07-29T14:25:51;31.50;63.20
46037;DHT22;31769;49.304;8.428;2022-07-29T14:28:52;31.00;62.70
46037;DHT22;31769;49.304;8.428;2022-07-29T14:31:52;30.70;63.60
46037;DHT22;31769;49.304;8.428;2022-07-29T14:34:53;30.60;64.70
46037;DHT22;31769;49.304;8.428;2022-07-29T14:37:54;31.40;58.90
46037;DHT22;31769;49.304;8.428;2022-07-29T14:40:54;32.30;57.30
46037;DHT22;31769;49.304;8.428;2022-07-29T14:43:55;33.50;57.70
46037;DHT22;31769;49.304;8.428;2022-07-29T14:46:59;32.60;56.30
46037;DHT22;31769;49.304;8.428;2022-07-29T14:50:01;32.00;55.30
46037;DHT22;31769;49.304;8.428;2022-07-29T14:53:02;32.80;54.30
46037;DHT22;31769;49.304;8.428;2022-07-29T14:56:03;34.40;51.70
46037;DHT22;31769;49.304;8.428;2022-07-29T14:59:03;35.00;50.60
46037;DHT22;31769;49.304;8.428;2022-07-29T15:02:04;35.70;49.90
46037;DHT22;31769;49.304;8.428;2022-07-29T15:05:05;36.60;49.10
46037;DHT22;31769;49.304;8.428;2022-07-29T15:08:06;36.20;48.30
46037;DHT22;31769;49.304;8.428;2022-07-29T15:11:08;35.90;48.10
46037;DHT22;31769;49.304;8.428;2022-07-29T15:14:09;36.00;48.50
46037;DHT22;31769;49.304;8.428;2022-07-29T15:17:10;35.60;48.60
46037;DHT22;31769;49.304;8.428;2022-07-29T15:20:12;34.90;48.50
46037;DHT22;31769;49.304;8.428;2022-07-29T15:23:12;33.70;50.00
46037;DHT22;31769;49.304;8.428;2022-07-29T15:26:13;33.00;50.90
46037;DHT22;31769;49.304;8.428;2022-07-29T15:29:14;33.20;51.10
46037;DHT22;31769;49.304;8.428;2022-07-29T15:32:15;34.30;49.80
46037;DHT22;31769;49.304;8.428;2022-07-29T15:35:19;35.60;47.20
46037;DHT22;31769;49.304;8.428;2022-07-29T15:38:20;35.80;47.20
46037;DHT22;31769;49.304;8.428;2022-07-29T15:41:21;35.50;46.60
46037;DHT22;31769;49.304;8.428;2022-07-29T15:44:22;35.30;46.90
46037;DHT22;31769;49.304;8.428;2022-07-29T15:47:23;35.50;46.70
46037;DHT22;31769;49.304;8.428;2022-07-29T15:50:23;35.20;47.30
46037;DHT22;31769;49.304;8.428;2022-07-29T15:53:25;34.20;47.60
46037;DHT22;31769;49.304;8.428;2022-07-29T15:56:25;33.90;48.30
46037;DHT22;31769;49.304;8.428;2022-07-29T15:59:27;34.70;47.70
46037;DHT22;31769;49.304;8.428;2022-07-29T16:02:28;34.60;46.90
46037;DHT22;31769;49.304;8.428;2022-07-29T16:05:28;34.20;47.20
46037;DHT22;31769;49.304;8.428;2022-07-29T16:08:29;33.60;48.20
46037;DHT22;31769;49.304;8.428;2022-07-29T16:11:30;33.40;48.30
46037;DHT22;31769;49.304;8.428;2022-07-29T16:14:30;35.20;46.40
46037;DHT22;31769;49.304;8.428;2022-07-29T16:17:31;36.20;45.50
46037;DHT22;31769;49.304;8.428;2022-07-29T16:20:32;37.70;44.00
46037;DHT22;31769;49.304;8.428;2022-07-29T16:23:35;39.30;42.00
46037;DHT22;31769;49.304;8.428;2022-07-29T16:26:36;40.10;40.90
46037;DHT22;31769;49.304;8.428;2022-07-29T16:29:37;40.80;40.30
46037;DHT22;31769;49.304;8.428;2022-07-29T16:32:37;40.20;39.70
46037;DHT22;31769;49.304;8.428;2022-07-29T16:35:39;39.90;39.80
46037;DHT22;31769;49.304;8.428;2022-07-29T16:38:40;39.80;39.80
46037;DHT22;31769;49.304;8.428;2022-07-29T16:41:41;40.90;39.20
46037;DHT22;31769;49.304;8.428;2022-07-29T16:44:41;41.20;38.50
46037;DHT22;31769;49.304;8.428;2022-07-29T16:47:42;39.50;39.40
46037;DHT22;31769;49.304;8.428;2022-07-29T16:50:43;38.80;39.60
46037;DHT22;31769;49.304;8.428;2022-07-29T16:53:44;39.50;39.50
46037;DHT22;31769;49.304;8.428;2022-07-29T16:56:45;40.70;39.40
46037;DHT22;31769;49.304;8.428;2022-07-29T16:59:45;40.60;38.30
46037;DHT22;31769;49.304;8.428;2022-07-29T17:02:46;39.80;38.80
46037;DHT22;31769;49.304;8.428;2022-07-29T17:05:47;39.80;37.40
46037;DHT22;31769;49.304;8.428;2022-07-29T17:08:48;38.80;37.00
46037;DHT22;31769;49.304;8.428;2022-07-29T17:11:49;38.30;37.40
46037;DHT22;31769;49.304;8.428;2022-07-29T17:14:52;37.60;38.00
46037;DHT22;31769;49.304;8.428;2022-07-29T17:17:53;36.90;38.40
46037;DHT22;31769;49.304;8.428;2022-07-29T17:20:54;36.50;38.50
46037;DHT22;31769;49.304;8.428;2022-07-29T17:23:55;35.60;39.40
46037;DHT22;31769;49.304;8.428;2022-07-29T17:26:55;35.30;39.50
46037;DHT22;31769;49.304;8.428;2022-07-29T17:29:56;34.80;39.90
46037;DHT22;31769;49.304;8.428;2022-07-29T17:32:58;34.70;40.40
46037;DHT22;31769;49.304;8.428;2022-07-29T17:35:58;34.00;40.40
46037;DHT22;31769;49.304;8.428;2022-07-29T17:39:18;33.50;41.40
46037;DHT22;31769;49.304;8.428;2022-07-29T17:42:19;32.30;42.60
46037;DHT22;31769;49.304;8.428;2022-07-29T17:45:19;31.40;43.80
46037;DHT22;31769;49.304;8.428;2022-07-29T17:48:20;31.10;44.50
46037;DHT22;31769;49.304;8.428;2022-07-29T17:51:23;31.10;44.70
46037;DHT22;31769;49.304;8.428;2022-07-29T17:54:24;31.20;44.70
46037;DHT22;31769;49.304;8.428;2022-07-29T17:57:24;31.40;44.90
46037;DHT22;31769;49.304;8.428;2022-07-29T18:00:25;31.50;44.70
46037;DHT22;31769;49.304;8.428;2022-07-29T18:03:26;31.40;45.00
46037;DHT22;31769;49.304;8.428;2022-07-29T18:06:28;31.30;45.40
46037;DHT22;31769;49.304;8.428;2022-07-29T18:09:28;30.90;45.60
46037;DHT22;31769;49.304;8.428;2022-07-29T18:12:29;30.50;46.40
46037;DHT22;31769;49.304;8.428;2022-07-29T18:15:30;29.90;47.10
46037;DHT22;31769;49.304;8.428;2022-07-29T18:18:31;29.50;47.90
46037;DHT22;31769;49.304;8.428;2022-07-29T18:21:31;29.10;48.60
46037;DHT22;31769;49.304;8.428;2022-07-29T18:24:32;28.90;49.30
46037;DHT22;31769;49.304;8.428;2022-07-29T18:27:34;28.70;49.90
46037;DHT22;31769;49.304;8.428;2022-07-29T18:30:35;28.50;50.50
46037;DHT22;31769;49.304;8.428;2022-07-29T18:33:38;28.30;51.10
46037;DHT22;31769;49.304;8.428;2022-07-29T18:36:39;28.20;51.70
46037;DHT22;31769;49.304;8.428;2022-07-29T18:39:40;28.00;52.20
46037;DHT22;31769;49.304;8.428;2022-07-29T18:42:41;27.80;52.70
46037;DHT22;31769;49.304;8.428;2022-07-29T18:45:42;27.70;53.60
46037;DHT22;31769;49.304;8.428;2022-07-29T18:48:42;27.50;54.30
46037;DHT22;31769;49.304;8.428;2022-07-29T18:51:43;27.30;54.50
46037;DHT22;31769;49.304;8.428;2022-07-29T18:54:43;27.20;54.70
46037;DHT22;31769;49.304;8.428;2022-07-29T18:57:44;27.00;54.70
46037;DHT22;31769;49.304;8.428;2022-07-29T19:00:45;27.00;55.00
46037;DHT22;31769;49.304;8.428;2022-07-29T19:03:46;26.90;55.40
46037;DHT22;31769;49.304;8.428;2022-07-29T19:06:47;26.90;56.10
46037;DHT22;31769;49.304;8.428;2022-07-29T19:09:47;26.90;56.30
46037;DHT22;31769;49.304;8.428;2022-07-29T19:12:48;26.80;56.40
46037;DHT22;31769;49.304;8.428;2022-07-29T19:15:49;26.80;56.90
46037;DHT22;31769;49.304;8.428;2022-07-29T19:18:50;26.80;57.30
46037;DHT22;31769;49.304;8.428;2022-07-29T19:21:50;26.80;58.40
46037;DHT22;31769;49.304;8.428;2022-07-29T19:24:51;26.80;60.00
46037;DHT22;31769;49.304;8.428;2022-07-29T19:27:52;26.80;60.80
46037;DHT22;31769;49.304;8.428;2022-07-29T19:30:53;26.80;61.10
46037;DHT22;31769;49.304;8.428;2022-07-29T19:33:54;26.80;61.80
46037;DHT22;31769;49.304;8.428;2022-07-29T19:36:54;26.70;62.40
46037;DHT22;31769;49.304;8.428;2022-07-29T19:39:55;26.60;63.10
46037;DHT22;31769;49.304;8.428;2022-07-29T19:42:56;26.60;63.50
46037;DHT22;31769;49.304;8.428;2022-07-29T19:45:57;26.40;63.80
46037;DHT22;31769;49.304;8.428;2022-07-29T19:48:58;26.30;64.90
46037;DHT22;31769;49.304;8.428;2022-07-29T19:51:58;26.20;66.00
46037;DHT22;31769;49.304;8.428;2022-07-29T19:54:59;26.00;67.20
46037;DHT22;31769;49.304;8.428;2022-07-29T19:57:59;25.90;68.90